Terminal Aerodrome Forecast
Issued by NWS Portland, OR

Home | Current Version | Previous Version | Text Only | Print | Product List | Glossary On
Versions: 1 2 3 4 5 6 7 8 9 10 11 12 13 14 15 16 17 18 19 20 21 22 23 24 25 26 27 28 29 30 31
000
FTUS46 KPQR 240520
TAFSLE
TAF
KSLE 240520Z 2406/2506 29005KT P6SM BKN021 OVC035
     FM240700 VRB03KT P6SM OVC025
     FM241000 VRB02KT P6SM BKN015 OVC018
     FM241900 36005KT P6SM SCT020 OVC045
     FM242100 36008KT P6SM SCT035 BKN050=

USA.gov is the U.S. government's official web portal to all federal, state and local government web resources and services.